Time;durP1;ratioP1;P1;durP2;ratioP2;P2;SDS_P1;SDS_P2;PMS_P1;PMS_P2;Temp;Humidity;BMP_temperature;BMP_pressure;BME280_temperature;BME280_humidity;BME280_pressure;Samples;Min_cycle;Max_cycle;Signal;HPM_P1;HPM_P2
2021/03/07 00:01:33;;;;;;;14.43;6.22;;;-1.20;99.90;;;;;;5012543;28;20094;-83
2021/03/07 00:03:58;;;;;;;15.35;6.75;;;-1.10;99.90;;;;;;5013526;28;20432;-83
2021/03/07 00:06:24;;;;;;;7.68;4.55;;;-1.30;99.90;;;;;;5000404;28;20086;-82
2021/03/07 00:08:50;;;;;;;5.97;3.58;;;-1.50;99.90;;;;;;5002783;28;20086;-83
2021/03/07 00:11:16;;;;;;;7.10;4.15;;;-1.80;99.90;;;;;;4997104;28;20099;-83
2021/03/07 00:13:41;;;;;;;6.75;3.88;;;-1.80;99.90;;;;;;4999866;28;20083;-83
2021/03/07 00:16:07;;;;;;;6.32;4.00;;;-1.90;99.90;;;;;;4999660;28;20464;-83
2021/03/07 00:18:33;;;;;;;6.60;3.70;;;-2.00;99.90;;;;;;5021028;28;20185;-83
2021/03/07 00:20:59;;;;;;;6.32;3.38;;;-1.90;99.90;;;;;;5017435;28;20098;-83
2021/03/07 00:23:24;;;;;;;4.55;2.88;;;-1.70;99.90;;;;;;4999157;28;20093;-83
2021/03/07 00:25:50;;;;;;;5.73;3.30;;;-1.50;99.90;;;;;;5000465;28;20098;-83
2021/03/07 00:28:15;;;;;;;3.63;3.03;;;-1.50;99.90;;;;;;5016382;28;20541;-83
2021/03/07 00:30:41;;;;;;;7.47;3.40;;;-1.30;99.90;;;;;;5000012;28;20098;-83
2021/03/07 00:33:07;;;;;;;4.75;3.03;;;-1.40;99.90;;;;;;5000389;28;20082;-83
2021/03/07 00:35:32;;;;;;;6.13;3.40;;;-1.40;99.90;;;;;;4989177;28;20087;-83
2021/03/07 00:37:58;;;;;;;10.35;4.72;;;-1.40;99.90;;;;;;5010264;28;20102;-83
2021/03/07 00:40:23;;;;;;;6.00;4.20;;;-1.30;99.90;;;;;;4988599;28;20596;-83
2021/03/07 00:42:50;;;;;;;5.97;3.42;;;-1.70;99.90;;;;;;5004310;28;20075;-83
2021/03/07 00:45:17;;;;;;;6.53;3.40;;;-1.90;99.90;;;;;;4998915;28;20090;-83
2021/03/07 00:47:43;;;;;;;7.90;3.40;;;-2.10;99.90;;;;;;5002578;28;20082;-82
2021/03/07 00:50:11;;;;;;;6.67;3.47;;;-1.90;99.90;;;;;;4995341;28;20089;-83
2021/03/07 00:52:37;;;;;;;5.67;3.07;;;-1.70;99.90;;;;;;4997221;28;21175;-83
2021/03/07 00:55:04;;;;;;;5.73;3.40;;;-1.70;99.90;;;;;;5005839;28;20085;-83
2021/03/07 00:57:29;;;;;;;4.97;3.03;;;-1.70;99.90;;;;;;4997381;28;20148;-83
2021/03/07 00:59:55;;;;;;;4.73;3.17;;;-1.70;99.90;;;;;;4999836;28;20070;-82
2021/03/07 01:02:21;;;;;;;6.13;3.67;;;-1.60;99.90;;;;;;5006130;28;20078;-83
2021/03/07 01:04:46;;;;;;;6.43;3.53;;;-1.40;99.90;;;;;;5012456;28;20078;-83
2021/03/07 01:07:12;;;;;;;9.25;4.43;;;-1.50;99.90;;;;;;5011411;28;20138;-83
2021/03/07 01:09:37;;;;;;;7.30;3.40;;;-1.50;99.90;;;;;;5020060;28;20093;-82
2021/03/07 01:12:04;;;;;;;3.47;2.85;;;-1.50;99.90;;;;;;5014581;28;20090;-82
2021/03/07 01:14:30;;;;;;;4.03;2.80;;;-2.00;99.90;;;;;;5024789;28;20085;-82
2021/03/07 01:16:56;;;;;;;6.17;3.70;;;-2.30;99.90;;;;;;5014985;28;20169;-83
2021/03/07 01:19:22;;;;;;;5.73;4.53;;;-2.60;99.90;;;;;;5014142;28;20181;-83
2021/03/07 01:21:47;;;;;;;4.40;3.33;;;-2.60;99.90;;;;;;5015854;28;20098;-83
2021/03/07 01:24:13;;;;;;;5.67;2.80;;;-2.40;99.90;;;;;;5004202;28;20181;-83
2021/03/07 01:26:39;;;;;;;5.83;3.17;;;-2.60;99.90;;;;;;5023542;28;20114;-82
2021/03/07 01:29:04;;;;;;;5.43;4.33;;;-2.70;99.90;;;;;;4999968;28;20085;-82
2021/03/07 01:31:30;;;;;;;6.17;3.10;;;-2.50;99.90;;;;;;4999967;28;20090;-83
2021/03/07 01:33:55;;;;;;;8.13;4.00;;;-2.20;99.90;;;;;;5006311;28;20105;-83
2021/03/07 01:36:21;;;;;;;6.20;3.47;;;-2.40;99.90;;;;;;5001562;28;20089;-83
2021/03/07 01:38:46;;;;;;;5.40;3.03;;;-2.50;99.90;;;;;;5003084;28;20122;-83
2021/03/07 01:41:12;;;;;;;4.30;3.03;;;-2.40;99.90;;;;;;5026798;28;20588;-81
2021/03/07 01:43:38;;;;;;;5.43;3.37;;;-2.30;99.90;;;;;;5012509;28;20642;-83
2021/03/07 01:46:03;;;;;;;5.20;2.87;;;-2.20;99.90;;;;;;5013843;28;20070;-83
2021/03/07 01:48:29;;;;;;;6.30;3.30;;;-1.90;99.90;;;;;;5009779;28;20588;-83
2021/03/07 01:50:55;;;;;;;5.53;3.30;;;-2.10;99.90;;;;;;4998494;28;20106;-82
2021/03/07 01:53:22;;;;;;;3.77;3.00;;;-2.10;99.90;;;;;;5008409;28;20086;-82
2021/03/07 01:55:50;;;;;;;5.43;3.40;;;-1.80;99.90;;;;;;5018508;28;20070;-83
2021/03/07 01:58:24;;;;;;;6.40;4.17;;;-2.10;99.90;;;;;;5024423;28;20102;-83
2021/03/07 02:00:50;;;;;;;;;;;-2.00;99.90;;;;;;4999408;28;20841;-83
2021/03/07 02:03:17;;;;;;;5.80;3.20;;;-1.90;99.90;;;;;;5011973;28;19968;-82
2021/03/07 02:05:44;;;;;;;4.27;2.70;;;-2.20;99.90;;;;;;5013649;28;20070;-83
2021/03/07 02:08:09;;;;;;;4.03;2.80;;;-2.30;99.90;;;;;;5000763;28;20081;-83
2021/03/07 02:10:44;;;;;;;5.67;3.03;;;-2.40;99.90;;;;;;4996893;28;20091;-83
2021/03/07 02:13:16;;;;;;;5.20;3.65;;;-2.80;99.90;;;;;;4993782;28;20086;-83
2021/03/07 02:15:45;;;;;;;7.10;3.27;;;-2.70;99.90;;;;;;5000035;28;20444;-83
2021/03/07 02:18:12;;;;;;;4.73;3.40;;;-2.90;99.90;;;;;;5003175;28;20094;-83
2021/03/07 02:20:42;;;;;;;5.67;3.33;;;-2.90;99.90;;;;;;5002770;28;20095;-83
2021/03/07 02:23:13;;;;;;;5.83;3.57;;;-2.40;99.90;;;;;;4998002;28;20090;-83
2021/03/07 02:25:40;;;;;;;5.23;3.07;;;-2.40;99.90;;;;;;4999649;28;20571;-83
2021/03/07 02:28:08;;;;;;;4.53;2.90;;;-2.40;99.90;;;;;;5000969;28;20165;-83
2021/03/07 02:30:35;;;;;;;6.60;3.10;;;-2.40;99.90;;;;;;5018256;28;20098;-82
2021/03/07 02:33:16;;;;;;;5.77;3.50;;;-2.30;99.90;;;;;;5018237;28;20089;-83
2021/03/07 02:36:04;;;;;;;7.53;3.30;;;-2.20;99.90;;;;;;5016877;28;20120;-83
2021/03/07 02:38:32;;;;;;;5.03;3.27;;;-2.10;99.90;;;;;;5000657;28;20094;-83
2021/03/07 02:40:59;;;;;;;6.37;3.40;;;-2.10;99.90;;;;;;5007293;28;20120;-83
2021/03/07 02:43:27;;;;;;;7.23;3.77;;;-2.10;99.90;;;;;;5006543;28;20169;-83
2021/03/07 02:45:57;;;;;;;6.47;3.50;;;-2.10;99.90;;;;;;5009226;28;20512;-83
2021/03/07 02:48:25;;;;;;;5.17;3.63;;;-2.20;99.90;;;;;;5013283;28;20074;-83
2021/03/07 02:50:51;;;;;;;5.70;3.13;;;-2.40;99.90;;;;;;4997708;28;20102;-83
2021/03/07 02:53:22;;;;;;;4.10;2.87;;;-2.40;99.90;;;;;;4994734;28;20071;-82
2021/03/07 02:55:55;;;;;;;5.90;4.07;;;-2.30;99.90;;;;;;4978834;28;20086;-83
2021/03/07 02:58:23;;;;;;;5.33;3.20;;;-2.20;99.90;;;;;;4999098;28;20109;-83
2021/03/07 03:00:54;;;;;;;4.20;2.97;;;-2.40;99.90;;;;;;5006892;28;20087;-83
2021/03/07 03:03:26;;;;;;;4.10;3.10;;;-2.60;99.90;;;;;;4997343;28;20078;-83
2021/03/07 03:05:52;;;;;;;6.97;3.83;;;-2.40;99.90;;;;;;5003502;28;20548;-83
2021/03/07 03:08:18;;;;;;;5.17;3.43;;;-2.20;99.90;;;;;;5008147;28;20106;-83
2021/03/07 03:10:44;;;;;;;4.13;3.23;;;-2.40;99.90;;;;;;4994349;28;20129;-83
2021/03/07 03:13:11;;;;;;;4.40;3.10;;;-2.90;99.90;;;;;;5021090;28;20082;-83
2021/03/07 03:15:37;;;;;;;5.57;3.40;;;-2.70;99.90;;;;;;4999825;28;20078;-83
2021/03/07 03:18:06;;;;;;;4.50;3.27;;;-2.40;99.90;;;;;;5010304;28;20112;-83
2021/03/07 03:20:32;;;;;;;6.27;3.10;;;-2.20;99.90;;;;;;5005770;28;20105;-83
2021/03/07 03:22:58;;;;;;;7.40;3.37;;;-2.20;99.90;;;;;;5012733;28;20078;-83
2021/03/07 03:25:24;;;;;;;6.27;3.43;;;-2.20;99.90;;;;;;5010530;28;20512;-83
2021/03/07 03:27:53;;;;;;;5.87;3.10;;;-2.20;99.90;;;;;;5033960;28;20096;-82
2021/03/07 03:30:21;;;;;;;7.43;3.30;;;-2.30;99.90;;;;;;5010686;28;20498;-83
2021/03/07 03:32:47;;;;;;;8.63;3.97;;;-2.40;99.90;;;;;;4983904;28;20071;-83
2021/03/07 03:35:15;;;;;;;9.53;3.60;;;-2.50;99.90;;;;;;5000102;28;20080;-83
2021/03/07 03:37:43;;;;;;;5.60;3.50;;;-2.60;99.90;;;;;;5000331;28;20094;-82
2021/03/07 03:40:15;;;;;;;5.23;3.43;;;-2.60;99.90;;;;;;4985930;28;20291;-82
2021/03/07 03:42:43;;;;;;;6.17;2.87;;;-2.40;99.90;;;;;;5000509;28;20070;-82
2021/03/07 03:45:10;;;;;;;5.10;3.23;;;-2.40;99.90;;;;;;5009240;28;20074;-83
2021/03/07 03:47:39;;;;;;;5.73;3.30;;;-2.50;99.90;;;;;;5011933;28;20078;-83
2021/03/07 03:50:07;;;;;;;7.20;3.90;;;-2.30;99.90;;;;;;5011472;28;20457;-83
2021/03/07 03:52:37;;;;;;;5.90;3.60;;;-2.20;99.90;;;;;;5020363;28;20086;-82
2021/03/07 03:55:08;;;;;;;6.63;3.47;;;-2.40;99.90;;;;;;5000478;28;20317;-83
2021/03/07 03:57:36;;;;;;;5.50;3.40;;;-2.70;99.90;;;;;;5003873;28;20117;-81
2021/03/07 04:00:06;;;;;;;5.10;3.20;;;-2.90;99.90;;;;;;5004856;28;20156;-82
2021/03/07 04:02:34;;;;;;;5.57;3.23;;;-3.00;99.90;;;;;;5005997;28;20078;-82
2021/03/07 04:05:04;;;;;;;5.17;3.60;;;-2.90;99.90;;;;;;4999354;28;20148;-83
2021/03/07 04:07:31;;;;;;;6.27;3.37;;;-2.80;99.90;;;;;;5011112;28;20156;-83
2021/03/07 04:09:57;;;;;;;5.10;2.97;;;-3.10;99.90;;;;;;5002310;28;20079;-83
2021/03/07 04:12:24;;;;;;;5.40;3.63;;;-3.10;99.90;;;;;;5003224;28;20082;-83
2021/03/07 04:14:52;;;;;;;8.23;4.07;;;-3.10;99.90;;;;;;5006043;28;20169;-83
2021/03/07 04:17:26;;;;;;;7.40;4.10;;;-2.90;99.90;;;;;;5012753;28;20078;-83
2021/03/07 04:19:52;;;;;;;5.20;3.27;;;-2.70;99.90;;;;;;5010340;28;20078;-83
2021/03/07 04:22:19;;;;;;;4.83;2.90;;;-2.80;99.90;;;;;;5006525;28;20087;-83
2021/03/07 04:24:47;;;;;;;5.73;3.77;;;-2.90;99.90;;;;;;5006849;28;20576;-83
2021/03/07 04:27:14;;;;;;;5.30;3.00;;;-2.80;99.90;;;;;;5005249;28;20484;-83
2021/03/07 04:29:40;;;;;;;5.73;3.53;;;-2.60;99.90;;;;;;5001332;28;20089;-83
2021/03/07 04:32:06;;;;;;;5.03;3.73;;;-2.50;99.90;;;;;;4994359;28;20095;-83
2021/03/07 04:34:34;;;;;;;5.30;3.20;;;-2.60;99.90;;;;;;5004093;28;20082;-81
2021/03/07 04:37:01;;;;;;;5.00;3.43;;;-2.50;99.90;;;;;;5010256;28;20132;-83
2021/03/07 04:39:27;;;;;;;4.97;3.40;;;-2.50;99.90;;;;;;5010143;28;20100;-83
2021/03/07 04:41:53;;;;;;;6.37;3.60;;;-2.40;99.90;;;;;;4995628;28;20094;-83
2021/03/07 04:44:19;;;;;;;6.70;4.07;;;-2.40;99.90;;;;;;5009092;28;20156;-83
2021/03/07 04:46:44;;;;;;;7.13;4.00;;;-2.40;99.90;;;;;;5004360;28;20608;-83
2021/03/07 04:49:10;;;;;;;6.77;4.00;;;-2.40;99.90;;;;;;4995185;28;20173;-83
2021/03/07 04:51:36;;;;;;;5.40;3.37;;;-2.40;99.90;;;;;;5000746;28;20144;-83
2021/03/07 04:54:02;;;;;;;5.63;3.50;;;-2.40;99.90;;;;;;5001906;28;20078;-83
2021/03/07 04:56:29;;;;;;;6.57;4.17;;;-2.30;99.90;;;;;;5011766;28;20078;-83
2021/03/07 04:58:55;;;;;;;6.07;3.57;;;-2.30;99.90;;;;;;5005173;28;20096;-82
2021/03/07 05:01:21;;;;;;;7.03;3.83;;;-2.40;99.90;;;;;;5008146;28;20094;-83
2021/03/07 05:03:46;;;;;;;5.70;3.63;;;-2.40;99.90;;;;;;5012655;28;20093;-83
2021/03/07 05:06:12;;;;;;;6.40;3.37;;;-2.40;99.90;;;;;;5008523;28;20552;-83
2021/03/07 05:08:38;;;;;;;5.93;3.80;;;-2.30;99.90;;;;;;5005634;28;20101;-82
2021/03/07 05:11:04;;;;;;;5.70;3.70;;;-2.50;99.90;;;;;;5009298;28;20189;-83
2021/03/07 05:13:30;;;;;;;6.37;3.47;;;-2.50;99.90;;;;;;5003768;28;20589;-83
2021/03/07 05:15:56;;;;;;;6.97;3.67;;;-2.50;99.90;;;;;;5010092;28;20081;-83
2021/03/07 05:18:21;;;;;;;7.10;3.70;;;-2.50;99.90;;;;;;5011433;28;20560;-83
2021/03/07 05:20:47;;;;;;;6.63;4.40;;;-2.50;99.90;;;;;;5008149;28;20139;-83
2021/03/07 05:23:13;;;;;;;5.27;3.47;;;-2.60;99.90;;;;;;4995274;28;20090;-83
2021/03/07 05:25:38;;;;;;;5.03;3.27;;;-2.70;99.90;;;;;;4994703;28;20086;-83
2021/03/07 05:28:04;;;;;;;4.37;2.97;;;-2.60;99.90;;;;;;5016948;28;20074;-83
2021/03/07 05:30:30;;;;;;;5.40;3.47;;;-2.70;99.90;;;;;;5013434;28;20098;-83
2021/03/07 05:32:56;;;;;;;5.13;3.30;;;-3.40;99.90;;;;;;5010707;28;20544;-83
2021/03/07 05:35:22;;;;;;;5.50;3.90;;;-3.20;99.90;;;;;;5014056;28;20077;-82
2021/03/07 05:37:48;;;;;;;7.53;4.03;;;-3.00;99.90;;;;;;5007632;28;20181;-83
2021/03/07 05:40:14;;;;;;;5.07;3.47;;;-3.00;99.90;;;;;;5007822;28;20086;-82
2021/03/07 05:42:40;;;;;;;7.00;4.00;;;-2.90;99.90;;;;;;5000970;28;20177;-83
2021/03/07 05:45:06;;;;;;;6.50;3.87;;;-2.70;99.90;;;;;;5005520;28;20164;-82
2021/03/07 05:47:32;;;;;;;5.00;3.63;;;-2.70;99.90;;;;;;5027485;28;20096;-82
2021/03/07 05:49:58;;;;;;;5.83;3.43;;;-2.60;99.90;;;;;;5013149;28;20556;-82
2021/03/07 05:52:24;;;;;;;5.07;3.37;;;-2.60;99.90;;;;;;5010423;28;20081;-82
2021/03/07 05:54:53;;;;;;;6.73;4.03;;;-2.90;99.90;;;;;;5020546;28;20082;-83
2021/03/07 05:57:24;;;;;;;5.87;3.63;;;-2.80;99.90;;;;;;5002949;28;20151;-83
2021/03/07 05:59:50;;;;;;;6.07;4.30;;;-2.70;99.90;;;;;;5016444;28;20165;-83
2021/03/07 06:02:17;;;;;;;8.47;3.97;;;-2.60;99.90;;;;;;5009536;28;20090;-83
2021/03/07 06:04:44;;;;;;;6.27;3.63;;;-2.60;99.90;;;;;;5012168;28;20120;-83
2021/03/07 06:07:10;;;;;;;7.03;4.47;;;-2.50;99.90;;;;;;5000712;28;20077;-82
2021/03/07 06:09:36;;;;;;;7.23;4.00;;;-2.50;99.90;;;;;;5002623;28;20093;-82
2021/03/07 06:12:13;;;;;;;5.70;3.80;;;-2.70;99.90;;;;;;4997531;28;20126;-82
2021/03/07 06:14:38;;;;;;;7.13;3.43;;;-2.80;99.90;;;;;;5025392;28;20080;-83
2021/03/07 06:17:13;;;;;;;9.17;3.60;;;-2.80;99.90;;;;;;5015003;28;20428;-82
2021/03/07 06:20:04;;;;;;;8.60;4.18;;;-3.00;99.90;;;;;;5009145;28;20081;-82
2021/03/07 06:22:31;;;;;;;7.50;3.80;;;-2.80;99.90;;;;;;5002609;28;20078;-83
2021/03/07 06:24:57;;;;;;;6.20;4.13;;;-2.90;99.90;;;;;;5011505;28;20074;-83
2021/03/07 06:27:24;;;;;;;6.30;4.00;;;-2.80;99.90;;;;;;5021978;28;20074;-83
2021/03/07 06:30:11;;;;;;;8.03;4.27;;;-2.50;99.90;;;;;;5000599;28;20548;-83
2021/03/07 06:33:03;;;;;;;5.93;3.87;;;-2.40;99.90;;;;;;5030080;28;20074;-83
2021/03/07 06:35:32;;;;;;;6.60;3.37;;;-2.40;99.90;;;;;;5000468;28;20090;-83
2021/03/07 06:37:59;;;;;;;6.57;4.43;;;-2.40;99.90;;;;;;5010860;28;20097;-83
2021/03/07 06:40:34;;;;;;;6.67;3.87;;;-2.30;99.90;;;;;;5013461;28;20086;-83
2021/03/07 06:43:24;;;;;;;5.68;3.97;;;-2.20;99.90;;;;;;5004999;28;20096;-83
2021/03/07 06:45:50;;;;;;;5.93;4.00;;;-2.00;99.90;;;;;;4999341;28;20087;-83
2021/03/07 06:48:16;;;;;;;6.63;4.83;;;-2.60;99.90;;;;;;5008620;28;20077;-83
2021/03/07 06:50:53;;;;;;;5.90;3.40;;;-2.70;99.90;;;;;;5009096;28;20094;-83
2021/03/07 06:53:37;;;;;;;7.73;4.10;;;-2.50;99.90;;;;;;5004793;28;20108;-83
2021/03/07 06:56:04;;;;;;;5.77;3.77;;;-2.40;99.90;;;;;;5008811;28;20078;-82
2021/03/07 06:58:29;;;;;;;6.57;4.50;;;-2.20;99.90;;;;;;5023035;28;20159;-82
2021/03/07 07:00:55;;;;;;;6.23;4.27;;;-2.00;99.90;;;;;;5005167;28;20095;-81
2021/03/07 07:03:21;;;;;;;7.17;4.93;;;-1.80;99.90;;;;;;5014350;28;20108;-82
2021/03/07 07:05:50;;;;;;;7.67;4.23;;;-2.30;99.90;;;;;;5031492;28;20097;-82
2021/03/07 07:08:17;;;;;;;7.63;4.77;;;-2.30;99.90;;;;;;5007783;28;20168;-82
2021/03/07 07:10:55;;;;;;;11.37;5.07;;;-2.30;99.90;;;;;;5010244;28;20097;-81
2021/03/07 07:13:22;;;;;;;6.03;4.37;;;-2.30;99.90;;;;;;4979246;28;20082;-82
2021/03/07 07:16:05;;;;;;;7.10;4.90;;;-2.20;99.90;;;;;;5002276;28;20079;-82
2021/03/07 07:18:33;;;;;;;8.60;4.90;;;-2.00;99.90;;;;;;4996321;28;20094;-81
2021/03/07 07:21:00;;;;;;;8.23;5.23;;;-1.70;99.90;;;;;;5030178;28;20093;-82
2021/03/07 07:23:26;;;;;;;10.50;6.00;;;-1.40;99.90;;;;;;5009030;28;20090;-81
2021/03/07 07:25:52;;;;;;;7.60;5.33;;;-1.30;99.90;;;;;;4998557;28;20081;-81
2021/03/07 07:28:18;;;;;;;10.53;6.83;;;-1.30;99.90;;;;;;5008383;28;20142;-81
2021/03/07 07:31:10;;;;;;;8.25;5.00;;;-1.40;99.90;;;;;;5013446;28;20094;-81
2021/03/07 07:33:57;;;;;;;8.83;5.83;;;-1.30;99.90;;;;;;5015962;28;20148;-81
2021/03/07 07:36:28;;;;;;;9.50;5.80;;;-1.30;99.90;;;;;;4996409;28;20074;-81
2021/03/07 07:38:56;;;;;;;10.27;5.78;;;-1.20;99.90;;;;;;5005807;28;20091;-81
2021/03/07 07:41:30;;;;;;;9.20;6.25;;;-0.70;99.90;;;;;;4997483;28;20189;-82
2021/03/07 07:43:56;;;;;;;9.33;5.57;;;-0.30;99.90;;;;;;5009586;28;20174;-82
2021/03/07 07:46:21;;;;;;;9.93;6.75;;;0.00;99.90;;;;;;5004533;28;20193;-82
2021/03/07 07:48:47;;;;;;;10.93;6.88;;;0.00;99.90;;;;;;5000170;28;20074;-82
2021/03/07 07:51:39;;;;;;;9.60;6.78;;;0.50;99.90;;;;;;5004494;28;20513;-82
2021/03/07 07:54:07;;;;;;;9.20;6.22;;;0.60;99.90;;;;;;5008568;28;20216;-83
2021/03/07 07:56:40;;;;;;;12.25;6.88;;;0.80;99.90;;;;;;5020951;28;20384;-83
2021/03/07 07:59:09;;;;;;;11.18;7.47;;;0.90;99.90;;;;;;5007148;28;20094;-83
2021/03/07 08:01:54;;;;;;;12.70;6.43;;;1.10;99.90;;;;;;5014016;28;20094;-84
2021/03/07 08:04:29;;;;;;;9.25;5.18;;;1.20;99.90;;;;;;5006474;28;20279;-84
2021/03/07 08:07:01;;;;;;;11.50;7.28;;;1.40;99.90;;;;;;5011948;28;20132;-84
2021/03/07 08:09:46;;;;;;;9.55;5.68;;;1.60;99.90;;;;;;5014178;28;20093;-84
2021/03/07 08:13:03;;;;;;;8.50;5.60;;;1.70;99.90;;;;;;4981791;28;20105;-84
2021/03/07 08:15:28;;;;;;;7.38;5.43;;;1.90;99.90;;;;;;4997637;28;20156;-85
2021/03/07 08:17:59;;;;;;;8.13;4.88;;;1.90;99.90;;;;;;5016244;28;20524;-85
2021/03/07 08:20:40;;;;;;;7.80;4.88;;;1.90;99.90;;;;;;5014152;28;20158;-85
2021/03/07 08:23:11;;;;;;;6.55;4.47;;;2.00;99.90;;;;;;5010003;28;20181;-84
2021/03/07 08:25:56;;;;;;;7.57;5.10;;;2.10;99.90;;;;;;5029600;28;20081;-85
2021/03/07 08:28:28;;;;;;;6.72;4.68;;;2.10;99.90;;;;;;4987815;28;20078;-85
2021/03/07 08:30:58;;;;;;;9.10;4.00;;;2.20;99.90;;;;;;4994152;28;20106;-85
2021/03/07 08:33:26;;;;;;;7.93;5.10;;;2.30;99.90;;;;;;5002659;28;20454;-85
2021/03/07 08:36:15;;;;;;;6.53;4.15;;;2.40;99.90;;;;;;5005065;28;20078;-86
2021/03/07 08:38:50;;;;;;;5.82;4.15;;;2.50;99.90;;;;;;5066758;23;20109;-79
2021/03/07 08:41:17;;;;;;;8.25;4.53;;;2.60;99.90;;;;;;5012005;28;20459;-79
2021/03/07 08:43:45;;;;;;;6.53;4.50;;;2.70;99.90;;;;;;5023324;28;20078;-79
2021/03/07 08:46:16;;;;;;;6.70;4.25;;;2.90;99.90;;;;;;5023956;28;20115;-78
2021/03/07 08:48:44;;;;;;;7.85;4.53;;;3.00;99.90;;;;;;5010087;28;20082;-79
2021/03/07 08:51:11;;;;;;;6.10;4.40;;;3.10;99.90;;;;;;5005946;28;20078;-79
2021/03/07 08:53:39;;;;;;;7.00;4.70;;;3.10;99.90;;;;;;4996901;28;20116;-78
2021/03/07 08:56:06;;;;;;;6.78;4.75;;;3.20;99.90;;;;;;5015609;28;20161;-79
2021/03/07 08:58:32;;;;;;;9.57;4.53;;;3.30;99.90;;;;;;5007240;28;20101;-78
2021/03/07 09:00:59;;;;;;;6.32;4.47;;;3.30;99.90;;;;;;5003746;28;20102;-79
2021/03/07 09:03:26;;;;;;;8.52;4.78;;;3.50;99.90;;;;;;5006841;28;20529;-79
2021/03/07 09:05:53;;;;;;;6.07;4.30;;;3.60;99.90;;;;;;5009029;28;20086;-79
2021/03/07 09:08:26;;;;;;;6.57;4.45;;;3.80;99.90;;;;;;5003471;28;20086;-79
2021/03/07 09:11:02;;;;;;;6.15;3.85;;;3.70;99.90;;;;;;5005763;28;20086;-78
2021/03/07 09:13:29;;;;;;;9.40;4.78;;;3.80;99.90;;;;;;5009835;28;20844;-79
2021/03/07 09:16:00;;;;;;;6.93;4.40;;;3.80;99.90;;;;;;5009903;28;20595;-79
2021/03/07 09:18:31;;;;;;;7.63;4.45;;;4.00;99.90;;;;;;5003581;28;20126;-78
2021/03/07 09:21:11;;;;;;;5.40;4.13;;;4.20;99.90;;;;;;5024927;28;20555;-80
2021/03/07 09:23:42;;;;;;;5.35;3.90;;;4.20;99.90;;;;;;5012384;28;20088;-79
2021/03/07 09:26:14;;;;;;;5.82;3.80;;;4.30;99.90;;;;;;5006852;28;20095;-79
2021/03/07 09:28:49;;;;;;;6.15;4.43;;;4.40;99.90;;;;;;5004041;28;20156;-80
2021/03/07 09:31:18;;;;;;;;;;;4.40;99.90;;;;;;5000528;28;20078;-80
2021/03/07 09:34:04;;;;;;;6.38;4.35;;;4.50;99.90;;;;;;5003098;28;20164;-78
2021/03/07 09:36:36;;;;;;;5.88;4.13;;;4.60;99.90;;;;;;5008179;28;20098;-77
2021/03/07 09:39:07;;;;;;;6.28;4.13;;;4.60;99.90;;;;;;4992460;28;20664;-78
2021/03/07 09:41:46;;;;;;;6.32;3.97;;;4.70;99.90;;;;;;4998809;28;20098;-77
2021/03/07 09:44:13;;;;;;;8.43;3.78;;;4.60;99.90;;;;;;5004154;28;20070;-78
2021/03/07 09:46:44;;;;;;;8.82;3.95;;;4.70;99.90;;;;;;5000256;28;20091;-77
2021/03/07 09:49:14;;;;;;;5.30;3.38;;;4.70;99.90;;;;;;5008843;28;20165;-79
2021/03/07 09:51:42;;;;;;;4.60;3.58;;;4.90;99.90;;;;;;5000608;28;20087;-79
2021/03/07 09:54:16;;;;;;;6.03;4.30;;;4.80;99.90;;;;;;5010674;28;20093;-77
2021/03/07 09:56:42;;;;;;;6.47;4.38;;;4.90;99.90;;;;;;5006596;28;20456;-76
2021/03/07 09:59:12;;;;;;;7.30;4.65;;;4.70;99.90;;;;;;5016642;28;20168;-77
2021/03/07 10:01:41;;;;;;;6.95;4.70;;;4.90;99.90;;;;;;4992569;28;20078;-78
2021/03/07 10:04:26;;;;;;;8.48;5.65;;;4.90;99.90;;;;;;5003391;28;20066;-77
2021/03/07 10:06:53;;;;;;;10.63;5.85;;;4.90;99.90;;;;;;5002200;28;20097;-77
2021/03/07 10:09:18;;;;;;;10.55;5.90;;;4.90;99.90;;;;;;5002581;28;20070;-77
2021/03/07 10:11:59;;;;;;;7.65;5.65;;;4.90;99.90;;;;;;5002837;28;20089;-77
2021/03/07 10:14:30;;;;;;;8.23;5.43;;;5.00;99.40;;;;;;5010294;28;20093;-78
2021/03/07 10:16:57;;;;;;;7.63;4.97;;;4.90;99.90;;;;;;5003543;28;20094;-77
2021/03/07 10:19:32;;;;;;;8.32;5.43;;;4.70;99.90;;;;;;5009392;28;20090;-77
2021/03/07 10:21:58;;;;;;;10.70;6.38;;;4.80;99.90;;;;;;5004004;28;20074;-77
2021/03/07 10:24:28;;;;;;;9.15;5.70;;;5.10;99.90;;;;;;5010245;28;20093;-77
2021/03/07 10:27:09;;;;;;;8.45;5.82;;;4.90;99.90;;;;;;5001048;28;20130;-76
2021/03/07 10:29:38;;;;;;;10.90;6.00;;;5.00;99.90;;;;;;5011240;28;20169;-77
2021/03/07 10:32:19;;;;;;;8.60;6.20;;;5.00;99.90;;;;;;5010431;28;20102;-77
2021/03/07 10:34:46;;;;;;;11.18;6.82;;;5.30;99.90;;;;;;4997698;28;20208;-77
2021/03/07 10:37:42;;;;;;;10.43;6.25;;;5.30;99.90;;;;;;5012548;28;20098;-76
2021/03/07 10:40:10;;;;;;;10.35;6.72;;;5.30;99.90;;;;;;4991385;28;20524;-78
2021/03/07 10:42:42;;;;;;;10.73;6.63;;;5.40;99.90;;;;;;5010686;28;20074;-77
2021/03/07 10:45:12;;;;;;;11.32;7.78;;;5.50;99.90;;;;;;5011665;28;20085;-77
2021/03/07 10:47:38;;;;;;;12.20;7.90;;;5.60;99.90;;;;;;5005843;28;20074;-77
2021/03/07 10:50:05;;;;;;;11.10;7.07;;;5.70;99.90;;;;;;5009771;28;20101;-77
2021/03/07 10:52:30;;;;;;;11.75;7.30;;;5.60;99.90;;;;;;4999171;28;20086;-76
2021/03/07 10:54:56;;;;;;;12.55;8.00;;;5.70;99.90;;;;;;5016768;28;20070;-77
2021/03/07 10:57:22;;;;;;;8.48;6.20;;;5.70;99.90;;;;;;5009486;28;20139;-77
2021/03/07 10:59:51;;;;;;;11.27;7.00;;;5.70;99.90;;;;;;5006575;28;20077;-78
2021/03/07 11:02:18;;;;;;;9.57;6.53;;;5.80;99.90;;;;;;5007985;28;20149;-77
2021/03/07 11:04:47;;;;;;;13.43;7.55;;;5.90;99.90;;;;;;5009849;28;20442;-78
2021/03/07 11:07:13;;;;;;;11.73;7.28;;;5.80;99.90;;;;;;5007648;28;20082;-77
2021/03/07 11:09:39;;;;;;;11.73;7.97;;;5.90;99.90;;;;;;5010763;28;20081;-78
2021/03/07 11:12:07;;;;;;;12.85;7.50;;;6.00;99.90;;;;;;4998201;28;20153;-78
2021/03/07 11:14:33;;;;;;;10.77;6.30;;;5.80;99.90;;;;;;5009038;28;20139;-77
2021/03/07 11:16:58;;;;;;;10.45;6.88;;;5.90;99.90;;;;;;5004797;28;20090;-78
2021/03/07 11:19:24;;;;;;;10.60;6.95;;;6.00;99.90;;;;;;5012016;28;20093;-78
2021/03/07 11:21:49;;;;;;;9.88;7.07;;;5.90;99.90;;;;;;5028980;28;20078;-78
2021/03/07 11:24:18;;;;;;;10.57;7.00;;;6.10;99.90;;;;;;5010751;28;20173;-78
2021/03/07 11:26:44;;;;;;;12.65;7.35;;;6.10;99.90;;;;;;5012236;28;20093;-78
2021/03/07 11:29:10;;;;;;;11.27;6.78;;;6.00;99.90;;;;;;5024049;28;20082;-77
2021/03/07 11:31:36;;;;;;;13.75;8.02;;;6.00;99.90;;;;;;5000410;28;20078;-77
2021/03/07 11:34:02;;;;;;;14.18;7.50;;;6.10;99.90;;;;;;4993972;28;20102;-76
2021/03/07 11:36:28;;;;;;;13.23;7.22;;;6.40;99.90;;;;;;4995695;28;20094;-77
2021/03/07 11:38:54;;;;;;;12.25;8.45;;;6.40;99.90;;;;;;5007414;28;20538;-76
2021/03/07 11:41:19;;;;;;;11.50;7.63;;;6.50;99.90;;;;;;4998107;28;20545;-77
2021/03/07 11:43:45;;;;;;;10.35;7.35;;;6.60;99.90;;;;;;5010762;28;20066;-76
2021/03/07 11:46:11;;;;;;;9.93;6.85;;;6.50;99.90;;;;;;5005023;28;20094;-76
2021/03/07 11:48:37;;;;;;;11.40;8.32;;;6.60;99.90;;;;;;4997274;28;20317;-76
2021/03/07 11:51:03;;;;;;;12.80;7.85;;;6.80;99.90;;;;;;5005986;28;20540;-76
2021/03/07 11:53:28;;;;;;;12.68;7.90;;;6.80;99.90;;;;;;5000651;28;20102;-76
2021/03/07 11:55:54;;;;;;;11.48;7.60;;;6.70;99.90;;;;;;5006786;28;20836;-76
2021/03/07 11:58:19;;;;;;;11.93;7.07;;;6.70;99.90;;;;;;4997309;28;20158;-76
2021/03/07 12:00:45;;;;;;;11.23;7.90;;;6.60;99.90;;;;;;5007127;28;20113;-77
2021/03/07 12:03:11;;;;;;;12.63;8.20;;;6.60;99.90;;;;;;5014398;28;20169;-76
2021/03/07 12:05:37;;;;;;;10.55;7.38;;;6.60;99.90;;;;;;5009387;28;20487;-75
2021/03/07 12:08:02;;;;;;;11.75;7.30;;;6.70;99.90;;;;;;5007708;28;20071;-75
2021/03/07 12:10:28;;;;;;;13.10;8.07;;;6.60;99.90;;;;;;5002847;28;20089;-75
2021/03/07 12:12:54;;;;;;;11.82;7.75;;;6.70;99.90;;;;;;4996049;28;20173;-78
2021/03/07 12:15:20;;;;;;;13.13;8.52;;;6.70;99.90;;;;;;5006336;28;20088;-77
2021/03/07 12:17:45;;;;;;;12.25;8.05;;;6.70;99.90;;;;;;4999796;28;20093;-78
2021/03/07 12:20:12;;;;;;;13.32;8.68;;;6.70;99.90;;;;;;5000911;28;20094;-77
2021/03/07 12:22:38;;;;;;;12.50;8.75;;;6.80;99.90;;;;;;4992911;28;20173;-79
2021/03/07 12:25:07;;;;;;;11.95;8.90;;;6.80;99.90;;;;;;5005795;28;20165;-76
2021/03/07 12:27:34;;;;;;;13.68;8.90;;;6.70;99.90;;;;;;5001641;28;20098;-78
2021/03/07 12:30:00;;;;;;;10.65;7.63;;;6.90;99.90;;;;;;5000388;28;20521;-79
2021/03/07 12:32:26;;;;;;;15.75;8.93;;;7.00;99.90;;;;;;5003462;28;20169;-80
2021/03/07 12:34:51;;;;;;;12.75;8.48;;;7.00;99.90;;;;;;4998710;28;20487;-79
2021/03/07 12:37:17;;;;;;;13.65;8.52;;;6.90;99.90;;;;;;5008002;28;20094;-79
2021/03/07 12:39:43;;;;;;;12.98;8.43;;;6.90;99.90;;;;;;5018665;28;20098;-79
2021/03/07 12:42:08;;;;;;;14.73;8.07;;;6.80;99.90;;;;;;4997009;28;20493;-78
2021/03/07 12:44:34;;;;;;;15.77;9.00;;;6.80;99.90;;;;;;5003196;28;20501;-78
2021/03/07 12:47:03;;;;;;;11.20;8.15;;;6.90;99.90;;;;;;5009525;28;20098;-78
2021/03/07 12:49:29;;;;;;;15.98;8.57;;;6.90;99.90;;;;;;5009555;28;20093;-77
2021/03/07 12:51:55;;;;;;;15.43;8.98;;;6.90;99.90;;;;;;5018153;28;20074;-78
2021/03/07 12:54:20;;;;;;;13.00;8.23;;;7.00;99.90;;;;;;5014322;28;20164;-78
2021/03/07 12:56:46;;;;;;;13.98;8.48;;;7.20;99.90;;;;;;5021556;28;20120;-77